createdAt,value
2017-10-09T00:01:04.817Z,0
2017-10-09T00:02:15.053Z,0
2017-10-09T00:03:24.921Z,0
2017-10-09T00:04:35.158Z,0
2017-10-09T00:05:45.395Z,0
2017-10-09T00:06:55.638Z,0
2017-10-09T00:08:05.571Z,0
2017-10-09T00:09:16.079Z,0
2017-10-09T00:10:26.321Z,0
2017-10-09T00:11:36.239Z,0
2017-10-09T00:12:46.472Z,0
2017-10-09T00:13:56.718Z,0
2017-10-09T00:15:07.200Z,0
2017-10-09T00:16:17.457Z,0
2017-10-09T00:17:27.704Z,0
2017-10-09T00:18:37.947Z,0
2017-10-09T00:19:48.218Z,0
2017-10-09T00:20:58.450Z,0
2017-10-09T00:22:08.702Z,0
2017-10-09T00:23:18.956Z,0
2017-10-09T00:24:29.206Z,0
2017-10-09T00:25:39.122Z,0
2017-10-09T00:26:49.657Z,0
2017-10-09T00:27:59.593Z,0
2017-10-09T00:29:09.525Z,0
2017-10-09T00:30:19.763Z,0
2017-10-09T00:31:30.015Z,0
2017-10-09T00:32:40.497Z,0
2017-10-09T00:33:50.752Z,0
2017-10-09T00:35:00.984Z,0
2017-10-09T00:36:10.905Z,0
2017-10-09T00:37:21.146Z,0
2017-10-09T00:38:31.631Z,0
2017-10-09T00:39:41.869Z,0
2017-10-09T00:40:51.469Z,0
2017-10-09T00:42:01.708Z,0
2017-10-09T00:43:11.636Z,0
2017-10-09T00:44:22.142Z,0
2017-10-09T00:45:32.065Z,0
2017-10-09T00:46:42.300Z,0
2017-10-09T00:47:52.221Z,0
2017-10-09T00:49:02.142Z,0
2017-10-09T00:50:12.643Z,0
2017-10-09T00:51:22.890Z,0
2017-10-09T00:52:33.122Z,0
2017-10-09T00:53:43.379Z,0
2017-10-09T00:54:53.616Z,0
2017-10-09T00:56:03.788Z,0
2017-10-09T00:57:14.039Z,0
2017-10-09T00:58:24.273Z,0
2017-10-09T00:59:34.504Z,0
2017-10-09T01:00:44.738Z,0
2017-10-09T01:01:55.275Z,0
2017-10-09T01:03:05.563Z,0
2017-10-09T01:04:15.804Z,0
2017-10-09T01:05:25.732Z,0
2017-10-09T01:06:35.340Z,0
2017-10-09T01:07:45.197Z,0
2017-10-09T01:08:55.466Z,0
2017-10-09T01:10:05.698Z,0
2017-10-09T01:11:15.317Z,0
2017-10-09T01:12:25.591Z,0
2017-10-09T01:13:36.085Z,0
2017-10-09T01:14:46.333Z,0
2017-10-09T01:15:56.263Z,0
2017-10-09T01:17:06.492Z,0
2017-10-09T01:18:16.424Z,0
2017-10-09T01:19:26.602Z,0
2017-10-09T01:20:36.855Z,0
2017-10-09T01:21:47.090Z,0
2017-10-09T01:22:57.318Z,0
2017-10-09T01:24:07.561Z,0
2017-10-09T01:25:18.047Z,0
2017-10-09T01:26:27.962Z,0
2017-10-09T01:27:37.889Z,0
2017-10-09T01:28:47.814Z,0
2017-10-09T01:29:58.047Z,0
2017-10-09T01:31:08.531Z,0
2017-10-09T01:32:18.769Z,0
2017-10-09T01:33:29.017Z,0
2017-10-09T01:34:39.262Z,0
2017-10-09T01:35:49.494Z,0
2017-10-09T01:36:59.973Z,0
2017-10-09T01:38:09.900Z,0
2017-10-09T01:39:20.135Z,0
2017-10-09T01:40:30.052Z,0
2017-10-09T01:41:39.999Z,0
2017-10-09T01:42:50.487Z,0
2017-10-09T01:44:00.411Z,0
2017-10-09T01:45:10.663Z,0
2017-10-09T01:46:20.908Z,0
2017-10-09T01:47:30.511Z,0
2017-10-09T01:48:40.688Z,0
2017-10-09T01:49:50.923Z,0
2017-10-09T01:51:01.151Z,0
2017-10-09T01:52:11.072Z,0
2017-10-09T01:53:21.301Z,0
2017-10-09T01:54:31.786Z,0
2017-10-09T01:55:42.055Z,0
2017-10-09T01:56:51.995Z,0
2017-10-09T01:58:02.258Z,0
2017-10-09T01:59:12.510Z,0
2017-10-09T02:00:22.431Z,0
2017-10-09T02:01:32.372Z,0
2017-10-09T02:02:42.306Z,0
2017-10-09T02:03:52.536Z,0
2017-10-09T02:05:02.770Z,0
2017-10-09T02:06:13.294Z,0
2017-10-09T02:07:23.527Z,0
2017-10-09T02:08:33.449Z,0
2017-10-09T02:09:43.736Z,0
2017-10-09T02:10:53.658Z,0
2017-10-09T02:12:04.154Z,0
2017-10-09T02:13:14.384Z,0
2017-10-09T02:14:24.306Z,0
2017-10-09T02:15:34.538Z,0
2017-10-09T02:16:44.771Z,0
2017-10-09T02:17:55.260Z,0
2017-10-09T02:19:05.509Z,0
2017-10-09T02:20:15.434Z,0
2017-10-09T02:21:25.364Z,0
2017-10-09T02:22:35.609Z,0
2017-10-09T02:23:46.103Z,0
2017-10-09T02:24:56.338Z,0
2017-10-09T02:26:06.257Z,0
2017-10-09T02:27:16.493Z,0
2017-10-09T02:28:26.728Z,0
2017-10-09T02:29:36.945Z,0
2017-10-09T02:30:46.859Z,0
2017-10-09T02:31:56.464Z,0
2017-10-09T02:33:06.697Z,0
2017-10-09T02:34:16.631Z,0
2017-10-09T02:35:26.820Z,0
2017-10-09T02:36:37.064Z,0
2017-10-09T02:37:46.994Z,0
2017-10-09T02:38:56.923Z,0
2017-10-09T02:40:07.188Z,0
2017-10-09T02:41:17.423Z,0
2017-10-09T02:42:27.665Z,0
2017-10-09T02:43:37.897Z,0
2017-10-09T02:44:48.143Z,0
2017-10-09T02:45:58.391Z,0
2017-10-09T02:47:08.572Z,0
2017-10-09T02:48:18.803Z,0
2017-10-09T02:49:28.722Z,0
2017-10-09T02:50:38.951Z,0
2017-10-09T02:51:49.196Z,0
2017-10-09T02:52:59.697Z,0
2017-10-09T02:54:09.931Z,0
2017-10-09T02:55:20.177Z,0
2017-10-09T02:56:30.417Z,0
2017-10-09T02:57:40.647Z,0
2017-10-09T02:58:50.820Z,0
2017-10-09T03:00:01.059Z,0
2017-10-09T03:01:11.295Z,0
2017-10-09T03:02:21.530Z,0
2017-10-09T03:03:31.777Z,0
2017-10-09T03:04:42.265Z,0
2017-10-09T03:05:52.496Z,0
2017-10-09T03:07:02.727Z,0
2017-10-09T03:08:12.980Z,0
2017-10-09T03:09:23.208Z,0
2017-10-09T03:10:33.070Z,0
2017-10-09T03:11:43.306Z,0
2017-10-09T03:12:53.237Z,0
2017-10-09T03:14:02.846Z,0
2017-10-09T03:15:12.775Z,0
2017-10-09T03:16:23.266Z,0
2017-10-09T03:17:33.184Z,0
2017-10-09T03:18:43.105Z,0
2017-10-09T03:19:53.025Z,0
2017-10-09T03:21:02.950Z,0
2017-10-09T03:22:13.451Z,0
2017-10-09T03:23:23.695Z,0
2017-10-09T03:24:33.923Z,0
2017-10-09T03:25:43.845Z,0
2017-10-09T03:26:54.079Z,0
2017-10-09T03:28:04.247Z,0
2017-10-09T03:29:14.167Z,0
2017-10-09T03:30:24.409Z,0
2017-10-09T03:31:34.642Z,0
2017-10-09T03:32:44.557Z,0
2017-10-09T03:33:55.057Z,0
2017-10-09T03:35:05.291Z,0
2017-10-09T03:36:15.236Z,0
2017-10-09T03:37:25.464Z,0
2017-10-09T03:38:35.691Z,0
2017-10-09T03:39:45.883Z,0
2017-10-09T03:40:56.121Z,0
2017-10-09T03:42:06.358Z,0
2017-10-09T03:43:16.608Z,0
2017-10-09T03:44:26.533Z,0
2017-10-09T03:45:37.014Z,0
2017-10-09T03:46:47.252Z,0
2017-10-09T03:47:57.497Z,0
2017-10-09T03:49:07.733Z,0
2017-10-09T03:50:17.967Z,0
2017-10-09T03:51:28.455Z,0
2017-10-09T03:52:38.692Z,0
2017-10-09T03:53:48.925Z,0
2017-10-09T03:54:59.163Z,0
2017-10-09T03:56:09.084Z,0
2017-10-09T03:57:19.249Z,0
2017-10-09T03:58:29.164Z,0
2017-10-09T03:59:39.083Z,0
2017-10-09T04:00:49.006Z,0
2017-10-09T04:01:59.239Z,0
2017-10-09T04:03:09.732Z,0
2017-10-09T04:04:19.691Z,0
2017-10-09T04:05:29.311Z,0
2017-10-09T04:06:39.541Z,0
2017-10-09T04:07:49.464Z,0
2017-10-09T04:08:59.956Z,0
2017-10-09T04:10:09.878Z,0
2017-10-09T04:11:20.113Z,0
2017-10-09T04:12:30.582Z,0
2017-10-09T04:13:40.821Z,0
2017-10-09T04:14:51.315Z,0
2017-10-09T04:16:01.543Z,0
2017-10-09T04:17:11.776Z,0
2017-10-09T04:18:22.008Z,0
2017-10-09T04:19:32.245Z,0
2017-10-09T04:20:42.417Z,0
2017-10-09T04:21:52.031Z,0
2017-10-09T04:23:02.269Z,0
2017-10-09T04:24:12.513Z,0
2017-10-09T04:25:22.749Z,0
2017-10-09T04:26:33.284Z,0
2017-10-09T04:27:43.197Z,0
2017-10-09T04:28:53.448Z,0
2017-10-09T04:30:03.687Z,0
2017-10-09T04:31:13.931Z,0
2017-10-09T04:32:24.467Z,0
2017-10-09T04:33:34.719Z,0
2017-10-09T04:34:44.640Z,0
2017-10-09T04:35:54.892Z,0
2017-10-09T04:37:05.129Z,0
2017-10-09T04:38:15.311Z,0
2017-10-09T04:39:25.539Z,0
2017-10-09T04:40:35.771Z,0
2017-10-09T04:41:45.687Z,0
2017-10-09T04:42:55.620Z,0
2017-10-09T04:44:06.105Z,0
2017-10-09T04:45:16.351Z,0
2017-10-09T04:46:26.283Z,4
2017-10-09T04:47:36.523Z,0
2017-10-09T04:48:46.449Z,4
2017-10-09T04:49:56.954Z,4
2017-10-09T04:51:06.879Z,4
2017-10-09T04:52:17.123Z,8
2017-10-09T04:53:27.361Z,8
2017-10-09T04:54:37.608Z,8
2017-10-09T04:55:47.788Z,8
2017-10-09T04:56:58.034Z,16
2017-10-09T04:58:08.295Z,16
2017-10-09T04:59:18.533Z,20
2017-10-09T05:00:28.771Z,24
2017-10-09T05:01:39.258Z,28
2017-10-09T05:02:49.183Z,36
2017-10-09T05:03:59.102Z,48
2017-10-09T05:05:09.029Z,56
2017-10-09T05:06:19.300Z,64
2017-10-09T05:07:29.777Z,80
2017-10-09T05:08:39.698Z,100
2017-10-09T05:09:49.616Z,116
2017-10-09T05:10:59.855Z,140
2017-10-09T05:12:10.108Z,168
2017-10-09T05:13:20.595Z,196
2017-10-09T05:14:30.822Z,228
2017-10-09T05:15:41.055Z,264
2017-10-09T05:16:51.296Z,308
2017-10-09T05:18:01.527Z,356
2017-10-09T05:19:12.026Z,408
2017-10-09T05:20:22.267Z,464
2017-10-09T05:21:32.499Z,520
2017-10-09T05:22:42.741Z,584
2017-10-09T05:23:52.974Z,652
2017-10-09T05:25:03.476Z,724
2017-10-09T05:26:13.413Z,804
2017-10-09T05:27:23.646Z,884
2017-10-09T05:28:33.884Z,968
2017-10-09T05:29:44.120Z,1060
2017-10-09T05:30:54.290Z,1144
2017-10-09T05:32:03.897Z,1232
2017-10-09T05:33:14.126Z,1336
2017-10-09T05:34:23.732Z,1440
2017-10-09T05:35:33.974Z,1536
2017-10-09T05:36:44.480Z,1640
2017-10-09T05:37:54.720Z,1740
2017-10-09T05:39:04.964Z,1820
2017-10-09T05:40:15.231Z,1916
2017-10-09T05:41:25.462Z,2016
2017-10-09T05:42:35.959Z,2112
2017-10-09T05:43:46.204Z,2208
2017-10-09T05:44:56.146Z,2304
2017-10-09T05:46:06.394Z,2400
2017-10-09T05:47:16.331Z,2500
2017-10-09T05:48:26.818Z,2592
2017-10-09T05:49:36.485Z,2684
2017-10-09T05:50:46.723Z,2776
2017-10-09T05:51:56.964Z,2868
2017-10-09T05:53:07.201Z,2960
2017-10-09T05:54:17.754Z,3048
2017-10-09T05:55:28.026Z,3140
2017-10-09T05:56:38.297Z,3220
2017-10-09T05:57:48.566Z,3304
2017-10-09T05:58:58.834Z,3388
2017-10-09T06:00:09.344Z,3472
2017-10-09T06:01:19.671Z,3556
2017-10-09T06:02:29.617Z,3632
2017-10-09T06:03:39.596Z,3708
2017-10-09T06:04:49.538Z,3784
2017-10-09T06:05:59.716Z,3864
2017-10-09T06:07:09.637Z,3936
2017-10-09T06:08:19.566Z,4008
2017-10-09T06:09:29.850Z,4080
2017-10-09T06:10:40.108Z,4152
2017-10-09T06:11:50.287Z,4220
2017-10-09T06:13:00.218Z,4288
2017-10-09T06:14:10.167Z,4356
2017-10-09T06:15:20.409Z,4420
2017-10-09T06:16:30.662Z,4492
2017-10-09T06:17:40.842Z,4564
2017-10-09T06:18:51.102Z,4628
2017-10-09T06:20:01.045Z,4688
2017-10-09T06:21:10.996Z,4748
2017-10-09T06:22:21.460Z,4816
2017-10-09T06:23:31.370Z,4876
2017-10-09T06:24:41.330Z,4940
2017-10-09T06:25:51.577Z,4992
2017-10-09T06:27:01.809Z,5056
2017-10-09T06:28:12.065Z,5112
2017-10-09T06:29:22.638Z,5168
2017-10-09T06:30:32.954Z,5228
2017-10-09T06:31:43.209Z,5280
2017-10-09T06:32:53.476Z,5340
2017-10-09T06:34:03.766Z,5396
2017-10-09T06:35:13.632Z,5452
2017-10-09T06:36:23.548Z,5500
2017-10-09T06:37:33.486Z,5544
2017-10-09T06:38:43.651Z,5588
2017-10-09T06:39:53.584Z,5648
2017-10-09T06:41:04.129Z,5692
2017-10-09T06:42:14.410Z,5748
2017-10-09T06:43:24.652Z,5804
2017-10-09T06:44:34.904Z,5848
2017-10-09T06:45:45.164Z,5896
2017-10-09T06:46:55.699Z,5944
2017-10-09T06:48:05.991Z,5992
2017-10-09T06:49:16.290Z,6052
2017-10-09T06:50:26.775Z,6112
2017-10-09T06:51:36.706Z,6188
2017-10-09T06:52:46.610Z,6228
2017-10-09T06:53:56.879Z,6296
2017-10-09T06:55:07.181Z,6368
2017-10-09T06:56:17.115Z,6428
2017-10-09T06:57:27.386Z,6528
2017-10-09T06:58:37.902Z,6584
2017-10-09T06:59:48.153Z,6640
2017-10-09T07:00:58.110Z,6692
2017-10-09T07:02:08.355Z,6764
2017-10-09T07:03:18.615Z,6816
2017-10-09T07:04:29.109Z,6860
2017-10-09T07:05:39.048Z,6916
2017-10-09T07:06:49.313Z,6968
2017-10-09T07:07:59.574Z,7008
2017-10-09T07:09:09.837Z,7044
2017-10-09T07:10:20.360Z,7080
2017-10-09T07:11:30.616Z,7128
2017-10-09T07:12:40.864Z,7188
2017-10-09T07:13:51.141Z,7224
2017-10-09T07:15:01.411Z,7276
2017-10-09T07:16:11.968Z,7356
2017-10-09T07:17:21.604Z,7428
2017-10-09T07:18:31.580Z,7508
2017-10-09T07:19:41.831Z,7644
2017-10-09T07:20:52.102Z,7720
2017-10-09T07:22:02.612Z,7776
2017-10-09T07:23:12.540Z,7808
2017-10-09T07:24:22.788Z,7812
2017-10-09T07:25:32.707Z,7908
2017-10-09T07:26:42.941Z,8176
2017-10-09T07:27:53.438Z,8252
2017-10-09T07:29:03.388Z,8168
2017-10-09T07:30:13.640Z,8300
2017-10-09T07:31:23.904Z,8276
2017-10-09T07:32:34.151Z,8048
2017-10-09T07:33:44.332Z,7884
2017-10-09T07:34:54.582Z,7964
2017-10-09T07:36:04.506Z,8024
2017-10-09T07:37:14.429Z,8092
2017-10-09T07:38:24.044Z,8104
2017-10-09T07:39:34.241Z,8096
2017-10-09T07:40:44.488Z,8144
2017-10-09T07:41:54.730Z,8152
2017-10-09T07:43:04.970Z,8168
2017-10-09T07:44:14.946Z,8216
2017-10-09T07:45:25.516Z,8236
2017-10-09T07:46:35.459Z,8308
2017-10-09T07:47:45.405Z,8344
2017-10-09T07:48:55.667Z,8352
2017-10-09T07:50:05.954Z,8424
2017-10-09T07:51:16.527Z,11180
2017-10-09T07:52:26.827Z,14436
2017-10-09T07:53:36.764Z,14428
2017-10-09T07:54:46.710Z,14064
2017-10-09T07:55:56.964Z,14004
2017-10-09T07:57:07.458Z,14088
2017-10-09T07:58:17.117Z,14548
2017-10-09T07:59:27.372Z,15228
2017-10-09T08:00:37.641Z,16972
2017-10-09T08:01:47.977Z,18944
2017-10-09T08:02:58.510Z,25120
2017-10-09T08:04:08.805Z,25504
2017-10-09T08:05:19.097Z,25792
2017-10-09T08:06:29.355Z,26080
2017-10-09T08:07:39.600Z,24544
2017-10-09T08:08:50.097Z,25888
2017-10-09T08:10:00.032Z,26560
2017-10-09T08:11:10.290Z,26400
2017-10-09T08:12:19.950Z,28256
2017-10-09T08:13:30.297Z,28672
2017-10-09T08:14:40.798Z,28192
2017-10-09T08:15:51.053Z,29344
2017-10-09T08:17:01.002Z,29248
2017-10-09T08:18:11.282Z,28960
2017-10-09T08:19:21.572Z,29760
2017-10-09T08:20:32.135Z,31808
2017-10-09T08:21:42.393Z,32928
2017-10-09T08:22:52.023Z,34240
2017-10-09T08:24:01.975Z,34784
2017-10-09T08:25:11.914Z,32896
2017-10-09T08:26:22.167Z,33312
2017-10-09T08:27:32.436Z,35840
2017-10-09T08:28:42.683Z,37056
2017-10-09T08:29:52.967Z,37664
2017-10-09T08:31:02.591Z,37024
2017-10-09T08:32:12.774Z,36160
2017-10-09T08:33:22.417Z,37952
2017-10-09T08:34:32.671Z,40768
2017-10-09T08:35:42.950Z,39616
2017-10-09T08:36:52.896Z,39392
2017-10-09T08:38:03.093Z,41600
2017-10-09T08:39:13.047Z,41792
2017-10-09T08:51:57.921Z,47552
2017-10-09T08:57:29.375Z,52032
2017-10-09T09:01:25.522Z,52992
2017-10-09T09:03:39.339Z,56928
2017-10-09T09:04:49.590Z,57600
2017-10-09T09:09:17.218Z,57600
2017-10-09T09:10:59.192Z,60928
2017-10-09T09:26:23.504Z,70944
2017-10-09T09:37:25.765Z,76128
2017-10-09T09:39:39.577Z,78208
2017-10-09T09:40:49.840Z,77088
2017-10-09T09:43:35.679Z,80768
2017-10-09T09:46:21.269Z,83488
2017-10-09T09:51:20.918Z,85632
2017-10-09T09:55:17.041Z,83456
2017-10-09T09:56:26.997Z,85504
2017-10-09T09:57:37.252Z,84512
2017-10-09T09:58:47.135Z,85056
2017-10-09T09:59:57.392Z,86976
2017-10-09T10:01:07.670Z,84320
2017-10-09T10:02:17.635Z,87200
2017-10-09T10:03:27.882Z,86336
2017-10-09T10:04:38.382Z,84640
2017-10-09T10:05:48.332Z,86816
2017-10-09T10:06:57.962Z,88704
2017-10-09T10:08:08.228Z,87968
2017-10-09T10:09:18.793Z,91968
2017-10-09T10:10:29.297Z,95584
2017-10-09T10:11:39.533Z,91808
2017-10-09T10:12:49.791Z,95392
2017-10-09T10:13:59.725Z,89888
2017-10-09T10:15:09.974Z,85952
2017-10-09T10:16:20.522Z,90848
2017-10-09T10:17:30.472Z,98112
2017-10-09T10:18:40.722Z,99904
2017-10-09T10:19:50.988Z,99648
2017-10-09T10:21:01.258Z,101984
2017-10-09T10:22:11.866Z,102176
2017-10-09T10:23:22.152Z,98368
2017-10-09T10:24:32.093Z,98368
2017-10-09T10:25:42.046Z,99232
2017-10-09T10:26:52.312Z,104000
2017-10-09T10:28:02.824Z,100736
2017-10-09T10:29:12.771Z,99776
2017-10-09T10:30:22.698Z,97888
2017-10-09T10:31:32.320Z,98688
2017-10-09T10:32:42.251Z,99712
2017-10-09T10:33:52.440Z,100064
2017-10-09T10:35:02.780Z,98880
2017-10-09T10:36:13.044Z,101216
2017-10-09T10:37:23.290Z,99360
2017-10-09T10:38:33.547Z,97984
2017-10-09T10:39:44.066Z,102624
2017-10-09T10:40:54.320Z,103200
2017-10-09T10:42:04.615Z,106592
2017-10-09T10:43:14.871Z,109472
2017-10-09T10:44:24.818Z,103840
2017-10-09T10:45:35.049Z,102784
2017-10-09T10:46:45.303Z,98272
2017-10-09T10:47:55.569Z,96544
2017-10-09T10:49:05.200Z,96992
2017-10-09T10:50:15.505Z,101952
2017-10-09T10:51:26.011Z,107680
2017-10-09T10:52:36.282Z,109056
2017-10-09T10:53:46.252Z,112576
2017-10-09T10:54:56.215Z,107872
2017-10-09T10:56:05.843Z,108512
2017-10-09T10:57:16.370Z,103200
2017-10-09T10:58:26.314Z,103296
2017-10-09T10:59:36.643Z,106208
2017-10-09T11:00:46.582Z,108544
2017-10-09T11:01:56.322Z,111136
2017-10-09T11:03:06.891Z,116512
2017-10-09T11:04:17.168Z,113152
2017-10-09T11:05:27.444Z,110400
2017-10-09T11:06:37.725Z,111520
2017-10-09T11:07:47.991Z,112640
2017-10-09T11:08:58.510Z,103776
2017-10-09T11:10:08.767Z,107776
2017-10-09T11:11:19.065Z,112000
2017-10-09T11:12:28.722Z,109664
2017-10-09T11:13:38.982Z,115200
2017-10-09T11:14:49.513Z,120320
2017-10-09T11:15:59.502Z,59104
2017-10-09T11:17:09.758Z,117024
2017-10-09T11:18:20.035Z,115904
2017-10-09T11:19:30.311Z,111488
2017-10-09T11:20:40.500Z,17764
2017-10-09T11:21:50.789Z,113184
2017-10-09T11:23:00.419Z,27296
2017-10-09T11:24:10.678Z,107936
2017-10-09T11:25:20.928Z,21504
2017-10-09T11:26:31.478Z,119520
2017-10-09T11:27:41.418Z,117152
2017-10-09T11:28:51.661Z,116928
2017-10-09T11:30:00.985Z,112480
2017-10-09T11:31:10.921Z,111776
2017-10-09T11:32:21.423Z,20448
2017-10-09T11:33:31.689Z,80768
2017-10-09T11:34:41.957Z,115552
2017-10-09T11:35:52.246Z,115904
2017-10-09T11:37:02.192Z,105504
2017-10-09T11:38:12.386Z,117152
2017-10-09T11:39:22.642Z,118400
2017-10-09T11:40:32.891Z,123712
2017-10-09T11:41:42.841Z,123200
2017-10-09T11:42:53.109Z,121024
2017-10-09T11:44:03.616Z,126752
2017-10-09T11:45:13.869Z,125408
2017-10-09T11:46:23.816Z,32352
2017-10-09T11:47:34.073Z,23072
2017-10-09T11:48:44.354Z,29568
2017-10-09T11:49:54.857Z,21664
2017-10-09T11:51:04.792Z,125824
2017-10-09T11:52:15.060Z,124320
2017-10-09T11:53:25.316Z,127968
2017-10-09T11:54:35.884Z,118048
2017-10-09T11:55:45.769Z,123360
2017-10-09T11:56:56.034Z,130240
2017-10-09T11:58:06.300Z,18880
2017-10-09T11:59:16.549Z,19040
2017-10-09T12:00:26.817Z,125952
2017-10-09T12:01:37.002Z,123168
2017-10-09T12:02:46.323Z,117440
2017-10-09T12:03:55.966Z,114368
2017-10-09T12:05:05.911Z,107040
2017-10-09T12:06:15.865Z,99712
2017-10-09T12:07:26.409Z,94848
2017-10-09T12:08:36.391Z,114912
2017-10-09T12:09:46.660Z,120480
2017-10-09T12:10:56.620Z,78208
2017-10-09T12:12:06.918Z,20576
2017-10-09T12:13:17.439Z,19040
2017-10-09T12:14:27.709Z,127136
2017-10-09T12:15:37.978Z,29952
2017-10-09T12:16:48.230Z,32352
2017-10-09T12:17:58.217Z,21280
2017-10-09T12:19:08.722Z,24672
2017-10-09T12:20:18.970Z,136704
2017-10-09T12:21:28.919Z,33568
2017-10-09T12:22:38.569Z,30784
2017-10-09T12:23:48.847Z,27584
2017-10-09T12:24:59.369Z,27936
2017-10-09T12:26:09.369Z,27712
2017-10-09T12:27:18.702Z,26464
2017-10-09T12:28:28.956Z,32512
2017-10-09T12:29:39.217Z,28960
2017-10-09T12:30:49.442Z,24704
2017-10-09T12:31:59.694Z,26080
2017-10-09T12:33:09.321Z,22272
2017-10-09T12:34:19.582Z,23968
2017-10-09T12:35:29.852Z,26624
2017-10-09T12:36:40.367Z,27040
2017-10-09T12:37:50.619Z,76512
2017-10-09T12:39:00.876Z,67968
2017-10-09T12:40:11.128Z,78592
2017-10-09T12:41:21.371Z,61792
2017-10-09T12:42:31.887Z,24320
2017-10-09T12:43:41.831Z,43264
2017-10-09T12:44:52.082Z,24960
2017-10-09T12:46:02.329Z,21632
2017-10-09T12:47:12.576Z,24352
2017-10-09T12:48:22.773Z,24480
2017-10-09T12:49:33.034Z,22624
2017-10-09T12:50:42.972Z,23136
2017-10-09T12:51:53.243Z,24704
2017-10-09T12:53:03.489Z,25504
2017-10-09T12:54:14.001Z,26016
2017-10-09T12:55:24.262Z,26816
2017-10-09T12:56:34.509Z,28256
2017-10-09T12:57:44.772Z,29600
2017-10-09T12:58:55.038Z,32000
2017-10-09T13:00:05.540Z,37536
2017-10-09T13:01:15.800Z,52608
2017-10-09T13:02:26.055Z,37440
2017-10-09T13:03:35.672Z,51040
2017-10-09T13:04:45.629Z,73824
2017-10-09T13:05:56.145Z,48512
2017-10-09T13:07:06.415Z,116608
2017-10-09T13:08:16.657Z,49568
2017-10-09T13:09:26.602Z,44704
2017-10-09T13:10:36.867Z,34112
2017-10-09T13:11:47.370Z,32224
2017-10-09T13:12:57.652Z,28032
2017-10-09T13:14:07.595Z,29408
2017-10-09T13:15:17.850Z,27904
2017-10-09T13:16:28.103Z,27136
2017-10-09T13:17:38.288Z,24288
2017-10-09T13:18:48.568Z,25248
2017-10-09T13:19:58.815Z,27168
2017-10-09T13:21:08.752Z,34080
2017-10-09T13:22:19.003Z,76160
2017-10-09T13:23:29.509Z,48576
2017-10-09T13:24:39.771Z,30656
2017-10-09T13:25:50.035Z,32640
2017-10-09T13:26:59.983Z,29856
2017-10-09T13:28:10.245Z,28192
2017-10-09T13:29:20.452Z,25696
2017-10-09T13:30:30.695Z,24896
2017-10-09T13:31:40.621Z,55552
2017-10-09T13:32:50.881Z,28128
2017-10-09T13:34:01.134Z,38464
2017-10-09T13:35:11.627Z,24992
2017-10-09T13:36:21.889Z,19424
2017-10-09T13:37:31.834Z,17920
2017-10-09T13:38:42.107Z,18464
2017-10-09T13:39:52.365Z,20000
2017-10-09T13:41:02.254Z,21504
2017-10-09T13:42:12.522Z,20768
2017-10-09T13:43:22.476Z,18752
2017-10-09T13:44:32.401Z,18752
2017-10-09T13:46:14.671Z,19104
2017-10-09T13:49:31.725Z,20448
2017-10-09T13:51:13.702Z,22624
2017-10-09T13:52:55.745Z,20384
2017-10-09T13:54:05.682Z,22272
2017-10-09T13:56:51.531Z,31040
2017-10-09T14:03:58.272Z,14472
2017-10-09T14:06:43.542Z,12860
2017-10-09T14:08:57.598Z,13408
2017-10-09T14:10:39.626Z,15112
2017-10-09T14:13:25.518Z,21248
2017-10-09T14:15:07.553Z,25344
2017-10-09T14:17:53.380Z,24768
2017-10-09T14:19:35.434Z,21216
2017-10-09T14:27:59.063Z,9288
2017-10-09T14:40:10.006Z,7872
2017-10-09T14:41:20.016Z,9604
2017-10-09T14:42:30.342Z,17440
2017-10-09T14:43:40.684Z,12188
2017-10-09T14:44:51.260Z,11324
2017-10-09T14:46:00.961Z,9348
2017-10-09T14:47:10.979Z,7356
2017-10-09T14:48:20.636Z,5828
2017-10-09T14:49:30.949Z,4536
2017-10-09T14:50:41.188Z,3828
2017-10-09T14:51:51.208Z,3540
2017-10-09T14:53:01.519Z,3424
2017-10-09T14:54:11.515Z,3228
2017-10-09T14:55:21.838Z,3144
2017-10-09T14:56:32.076Z,3336
2017-10-09T14:57:42.406Z,3168
2017-10-09T14:58:52.729Z,2776
2017-10-09T15:00:02.735Z,2720
2017-10-09T15:01:12.737Z,2920
2017-10-09T15:02:23.338Z,3544
2017-10-09T15:03:33.657Z,3816
2017-10-09T15:04:44.008Z,3744
2017-10-09T15:05:54.030Z,3644
2017-10-09T15:07:04.351Z,3572
2017-10-09T15:08:13.948Z,3452
2017-10-09T15:09:24.274Z,3308
2017-10-09T15:10:34.833Z,3188
2017-10-09T15:11:44.823Z,3040
2017-10-09T15:12:55.135Z,2804
2017-10-09T15:14:05.942Z,2496
2017-10-09T15:15:16.279Z,2216
2017-10-09T15:16:26.260Z,2000
2017-10-09T15:17:36.584Z,1832
2017-10-09T15:18:45.905Z,1788
2017-10-09T15:19:56.468Z,1852
2017-10-09T15:21:06.786Z,1912
2017-10-09T15:22:16.793Z,1780
2017-10-09T15:23:27.122Z,1688
2017-10-09T15:24:37.106Z,1620
2017-10-09T15:25:47.686Z,1600
2017-10-09T15:26:58.006Z,1568
2017-10-09T15:28:08.334Z,1524
2017-10-09T15:29:18.326Z,1564
2017-10-09T15:30:28.660Z,1644
2017-10-09T15:31:39.240Z,1740
2017-10-09T15:32:49.582Z,1840
2017-10-09T15:33:59.571Z,1960
2017-10-09T15:35:09.901Z,2160
2017-10-09T15:36:20.232Z,2400
2017-10-09T15:37:30.460Z,2760
2017-10-09T15:38:40.806Z,3256
2017-10-09T15:39:50.799Z,3432
2017-10-09T15:41:01.109Z,3152
2017-10-09T15:42:11.429Z,2804
2017-10-09T15:43:22.015Z,2460
2017-10-09T15:44:32.039Z,2144
2017-10-09T15:45:42.597Z,1900
2017-10-09T15:46:52.910Z,1728
2017-10-09T15:48:03.233Z,1536
2017-10-09T15:49:13.464Z,1396
2017-10-09T15:50:23.772Z,1244
2017-10-09T15:51:34.104Z,1084
2017-10-09T15:52:44.116Z,912
2017-10-09T15:53:54.448Z,776
2017-10-09T15:55:05.021Z,708
2017-10-09T15:56:15.349Z,716
2017-10-09T15:57:25.344Z,732
2017-10-09T15:58:35.335Z,672
2017-10-09T15:59:45.645Z,588
2017-10-09T16:00:55.557Z,516
2017-10-09T16:02:05.890Z,460
2017-10-09T16:03:16.205Z,420
2017-10-09T16:04:26.544Z,404
2017-10-09T16:05:36.543Z,428
2017-10-09T16:06:46.770Z,448
2017-10-09T16:07:57.091Z,432
2017-10-09T16:09:07.084Z,396
2017-10-09T16:10:17.421Z,348
2017-10-09T16:11:27.412Z,312
2017-10-09T16:12:38.073Z,288
2017-10-09T16:13:48.054Z,280
2017-10-09T16:14:58.064Z,276
2017-10-09T16:16:08.051Z,272
2017-10-09T16:17:18.041Z,264
2017-10-09T16:18:28.319Z,248
2017-10-09T16:19:38.310Z,232
2017-10-09T16:20:48.309Z,212
2017-10-09T16:21:58.635Z,192
2017-10-09T16:23:08.624Z,180
2017-10-09T16:24:19.215Z,160
2017-10-09T16:25:29.546Z,144
2017-10-09T16:26:39.874Z,120
2017-10-09T16:27:50.199Z,100
2017-10-09T16:29:00.190Z,88
2017-10-09T16:30:10.116Z,84
2017-10-09T16:31:20.442Z,76
2017-10-09T16:32:30.771Z,64
2017-10-09T16:33:41.086Z,56
2017-10-09T16:34:51.072Z,52
2017-10-09T16:36:01.318Z,44
2017-10-09T16:37:11.307Z,40
2017-10-09T16:38:21.644Z,36
2017-10-09T16:39:31.624Z,32
2017-10-09T16:40:41.611Z,28
2017-10-09T16:41:52.180Z,24
2017-10-09T16:43:01.845Z,20
2017-10-09T16:44:11.516Z,16
2017-10-09T16:45:21.493Z,8
2017-10-09T16:46:31.808Z,8
2017-10-09T16:47:42.432Z,8
2017-10-09T16:48:52.089Z,4
2017-10-09T16:50:01.754Z,4
2017-10-09T16:51:12.080Z,4
2017-10-09T16:52:22.097Z,4
2017-10-09T16:53:32.667Z,4
2017-10-09T16:54:42.992Z,4
2017-10-09T16:55:53.010Z,4
2017-10-09T16:57:03.336Z,4
2017-10-09T16:58:13.312Z,0
2017-10-09T16:59:23.598Z,4
2017-10-09T17:00:33.913Z,4
2017-10-09T17:01:44.252Z,0
2017-10-09T17:02:54.578Z,0
2017-10-09T17:04:04.900Z,0
2017-10-09T17:05:15.517Z,0
2017-10-09T17:06:25.833Z,0
2017-10-09T17:07:35.846Z,0
2017-10-09T17:08:45.537Z,0
2017-10-09T17:09:55.532Z,0
2017-10-09T17:11:06.116Z,0
2017-10-09T17:12:16.427Z,0
2017-10-09T17:13:26.789Z,0
2017-10-09T17:14:37.119Z,0
2017-10-09T17:15:47.449Z,0
2017-10-09T17:16:58.025Z,0
2017-10-09T17:18:08.043Z,0
2017-10-09T17:19:18.363Z,0
2017-10-09T17:20:28.350Z,0
2017-10-09T17:21:38.666Z,0
2017-10-09T17:22:48.917Z,0
2017-10-09T17:23:58.926Z,0
2017-10-09T17:25:09.266Z,0
2017-10-09T17:26:19.250Z,0
2017-10-09T17:27:29.238Z,0
2017-10-09T17:28:39.805Z,0
2017-10-09T17:29:49.800Z,0
2017-10-09T17:30:59.467Z,0
2017-10-09T17:32:09.793Z,0
2017-10-09T17:33:20.119Z,0
2017-10-09T17:34:30.359Z,0
2017-10-09T17:35:40.693Z,0